Time;durP1;ratioP1;P1;durP2;ratioP2;P2;SDS_P1;SDS_P2;PMS_P1;PMS_P2;Temp;Humidity;BMP_temperature;BMP_pressure;BME280_temperature;BME280_humidity;BME280_pressure;Samples;Min_cycle;Max_cycle;Signal;HPM_P1;HPM_P2
2023/01/26 00:00:54;;;;;;;63.28;24.35;;;-3274.60;99.10;;;;;;5031453;28;20120;-66
2023/01/26 00:03:21;;;;;;;64.45;24.80;;;-3274.60;99.20;;;;;;5030407;28;20057;-66
2023/01/26 00:05:46;;;;;;;63.95;24.50;;;-3274.60;99.10;;;;;;5023013;28;20044;-66
2023/01/26 00:08:12;;;;;;;72.75;26.00;;;-3274.60;99.10;;;;;;5022696;28;20041;-66
2023/01/26 00:10:40;;;;;;;61.78;24.10;;;-3274.60;99.10;;;;;;5032306;28;20136;-66
2023/01/26 00:13:06;;;;;;;69.85;24.80;;;-3274.60;99.20;;;;;;5022987;28;20048;-66
2023/01/26 00:15:33;;;;;;;65.15;25.05;;;-3274.60;99.10;;;;;;5028367;28;20478;-66
2023/01/26 00:17:59;;;;;;;63.30;24.92;;;-3274.60;99.20;;;;;;5028925;28;20037;-66
2023/01/26 00:20:26;;;;;;;66.65;27.90;;;-3274.60;99.10;;;;;;5027140;28;20474;-66
2023/01/26 00:22:51;;;;;;;66.88;24.02;;;-3274.60;99.20;;;;;;5019891;28;20044;-66
2023/01/26 00:25:17;;;;;;;68.30;25.27;;;-3274.70;99.30;;;;;;5030572;28;20030;-65
2023/01/26 00:27:42;;;;;;;66.20;25.38;;;-3274.70;99.20;;;;;;5029845;28;20036;-66
2023/01/26 00:30:08;;;;;;;71.85;25.02;;;-3274.70;99.20;;;;;;5027358;28;20040;-66
2023/01/26 00:32:35;;;;;;;73.47;26.00;;;-3274.70;99.10;;;;;;5028897;28;20029;-66
2023/01/26 00:35:01;;;;;;;76.65;27.17;;;-3274.70;99.20;;;;;;5028927;28;20029;-65
2023/01/26 00:37:26;;;;;;;75.97;27.77;;;-3274.70;99.20;;;;;;5021116;28;20402;-67
2023/01/26 00:39:52;;;;;;;78.20;25.85;;;-3274.70;99.20;;;;;;5020581;28;20034;-67
2023/01/26 00:42:17;;;;;;;69.85;24.90;;;-3274.80;99.30;;;;;;5022162;28;20042;-67
2023/01/26 00:44:43;;;;;;;78.55;27.58;;;-3274.80;99.20;;;;;;5027841;28;20029;-65
2023/01/26 00:47:10;;;;;;;77.32;28.92;;;-3274.80;99.20;;;;;;5020910;28;20425;-66
2023/01/26 00:49:36;;;;;;;78.15;27.40;;;-3274.80;99.20;;;;;;5024237;28;20037;-66
2023/01/26 00:52:02;;;;;;;75.07;26.00;;;-3274.70;99.20;;;;;;5019196;28;20037;-68
2023/01/26 00:54:28;;;;;;;79.80;27.05;;;-3274.70;99.20;;;;;;5023663;28;20446;-65
2023/01/26 00:56:53;;;;;;;83.20;29.88;;;-3274.80;99.30;;;;;;5022995;28;20036;-66
2023/01/26 00:59:19;;;;;;;86.13;27.15;;;-3274.80;99.30;;;;;;5021877;28;20381;-66
2023/01/26 01:01:46;;;;;;;68.75;25.13;;;-3274.80;99.20;;;;;;5015160;28;20456;-66
2023/01/26 01:04:11;;;;;;;75.90;27.02;;;-3274.80;99.20;;;;;;5035745;28;20438;-66
2023/01/26 01:06:37;;;;;;;75.85;27.48;;;-3274.80;99.20;;;;;;5032011;28;20037;-66
2023/01/26 01:09:03;;;;;;;77.18;26.83;;;-3274.80;99.30;;;;;;5032521;28;20036;-66
2023/01/26 01:11:29;;;;;;;77.13;28.17;;;-3274.80;99.20;;;;;;5030528;28;20438;-66
2023/01/26 01:13:55;;;;;;;72.75;26.15;;;-3274.80;99.20;;;;;;5029052;28;20038;-67
2023/01/26 01:16:20;;;;;;;87.78;29.02;;;-3274.80;99.30;;;;;;5035705;28;20104;-65
2023/01/26 01:18:46;;;;;;;75.43;27.38;;;-3274.80;99.30;;;;;;5027811;28;20472;-66
2023/01/26 01:21:16;;;;;;;71.40;25.42;;;-3274.90;99.30;;;;;;5030426;28;20494;-66
2023/01/26 01:23:42;;;;;;;75.88;25.90;;;-3274.90;99.30;;;;;;5027575;28;20083;-66
2023/01/26 01:26:08;;;;;;;82.15;27.08;;;-3274.80;99.20;;;;;;5034523;28;20111;-66
2023/01/26 01:28:36;;;;;;;73.05;25.70;;;-3274.80;99.20;;;;;;5032047;28;20029;-66
2023/01/26 01:31:06;;;;;;;74.88;25.50;;;-3274.80;99.20;;;;;;5030885;28;20056;-66
2023/01/26 01:33:32;;;;;;;70.68;25.38;;;-3274.80;99.30;;;;;;5025167;28;20063;-66
2023/01/26 01:35:59;;;;;;;72.35;25.67;;;-3274.90;99.30;;;;;;5024575;28;20510;-66
2023/01/26 01:38:25;;;;;;;82.43;25.80;;;-3274.80;99.30;;;;;;5030107;28;20068;-67
2023/01/26 01:40:51;;;;;;;81.93;26.27;;;-3274.80;99.30;;;;;;5027344;28;20120;-66
2023/01/26 01:43:17;;;;;;;73.95;24.88;;;-3274.80;99.40;;;;;;5032494;28;20401;-65
2023/01/26 01:45:44;;;;;;;78.68;26.98;;;-3274.80;99.40;;;;;;5025897;28;20034;-66
2023/01/26 01:48:34;;;;;;;71.68;24.55;;;-3274.80;99.40;;;;;;5029086;28;20497;-65
2023/01/26 01:51:05;;;;;;;68.50;24.88;;;-3274.80;99.50;;;;;;5027554;28;20618;-66
2023/01/26 01:53:36;;;;;;;81.30;24.75;;;-3274.90;99.50;;;;;;5024363;28;20041;-66
2023/01/26 01:56:05;;;;;;;73.65;25.90;;;-3274.90;99.50;;;;;;5024664;28;20023;-66
2023/01/26 01:58:35;;;;;;;68.05;25.77;;;-3274.90;99.40;;;;;;5030875;28;20072;-66
2023/01/26 02:01:01;;;;;;;77.15;25.58;;;-3274.90;99.50;;;;;;5035685;28;20029;-66
2023/01/26 02:03:29;;;;;;;75.05;26.73;;;-3274.90;99.50;;;;;;5041776;28;20091;-67
2023/01/26 02:05:58;;;;;;;75.53;24.85;;;-3274.90;99.60;;;;;;5026684;28;20120;-66
2023/01/26 02:08:35;;;;;;;79.90;25.67;;;-3274.90;99.60;;;;;;5029932;28;20033;-66
2023/01/26 02:11:06;;;;;;;74.63;25.52;;;-3274.90;99.60;;;;;;5034663;28;20076;-66
2023/01/26 02:13:33;;;;;;;71.45;25.50;;;-3274.90;99.70;;;;;;5030680;28;20037;-66
2023/01/26 02:15:59;;;;;;;75.22;24.73;;;-3274.90;99.60;;;;;;5034562;28;20030;-66
2023/01/26 02:18:25;;;;;;;82.75;24.23;;;-3274.90;99.60;;;;;;5030545;28;20037;-66
2023/01/26 02:21:01;;;;;;;70.43;25.85;;;-3274.90;99.70;;;;;;5026862;28;20029;-66
2023/01/26 02:23:48;;;;;;;79.93;25.60;;;-3274.90;99.70;;;;;;5025749;28;20049;-66
2023/01/26 02:26:21;;;;;;;70.97;25.85;;;-3275.00;99.70;;;;;;5028846;28;20033;-66
2023/01/26 02:28:47;;;;;;;85.43;26.35;;;-3274.90;99.70;;;;;;5026543;28;20089;-66
2023/01/26 02:31:14;;;;;;;71.22;24.35;;;-3275.00;99.80;;;;;;5028472;28;20068;-66
2023/01/26 02:33:40;;;;;;;87.20;26.77;;;-3275.00;99.80;;;;;;5026475;28;20041;-66
2023/01/26 02:36:07;;;;;;;75.10;25.17;;;-3275.00;99.80;;;;;;5027664;28;20418;-68
2023/01/26 02:38:49;;;;;;;66.80;24.00;;;-3275.00;99.80;;;;;;5018062;28;20080;-66
2023/01/26 02:42:37;;;;;;;69.45;24.08;;;-3275.00;99.80;;;;;;5034016;28;20030;-66
2023/01/26 02:44:04;;;;;;;72.97;24.63;;;-3275.00;99.80;;;;;;5020359;28;20409;-66
2023/01/26 02:46:29;;;;;;;77.32;25.15;;;-3275.00;99.70;;;;;;5022034;28;20022;-66
2023/01/26 02:51:39;;;;;;;70.35;24.50;;;-3275.00;99.80;;;;;;5032360;28;20048;-65
2023/01/26 02:54:04;;;;;;;62.83;23.70;;;-3275.00;99.80;;;;;;5023331;28;20033;-66
2023/01/26 02:56:30;;;;;;;67.18;23.73;;;-3275.00;99.80;;;;;;5015943;28;20033;-66
2023/01/26 02:58:55;;;;;;;78.03;25.67;;;-3275.00;99.80;;;;;;5017626;28;20041;-67
2023/01/26 03:01:21;;;;;;;72.43;24.27;;;-3275.00;99.80;;;;;;5027357;28;20084;-65
2023/01/26 03:03:46;;;;;;;62.63;23.08;;;-3275.00;99.80;;;;;;5024878;28;20095;-66
2023/01/26 03:06:14;;;;;;;74.70;24.85;;;-3275.00;99.90;;;;;;5030913;28;20104;-66
2023/01/26 03:08:39;;;;;;;72.63;24.85;;;-3275.00;99.90;;;;;;5029226;28;20044;-65
2023/01/26 03:11:06;;;;;;;63.33;23.42;;;-3275.00;99.90;;;;;;5032854;28;20033;-65
2023/01/26 03:13:31;;;;;;;68.20;24.92;;;-3275.00;99.80;;;;;;5028833;28;20397;-66
2023/01/26 03:16:01;;;;;;;69.60;24.73;;;-3275.00;99.90;;;;;;5037654;28;20037;-66
2023/01/26 03:29:30;;;;;;;78.72;25.52;;;-3275.10;99.90;;;;;;5022792;28;20033;-65
2023/01/26 03:31:57;;;;;;;68.57;23.58;;;-3275.10;99.90;;;;;;5029822;28;20026;-65
2023/01/26 03:34:24;;;;;;;71.63;24.17;;;-3275.10;99.90;;;;;;5032499;28;20049;-65
2023/01/26 03:36:50;;;;;;;78.68;23.60;;;-3275.10;99.90;;;;;;5027420;28;20025;-67
2023/01/26 03:58:29;;;;;;;59.42;21.95;;;-3275.20;99.90;;;;;;5019457;28;20048;-66
2023/01/26 04:00:55;;;;;;;71.88;22.05;;;-3275.10;99.90;;;;;;5029090;28;20033;-65
2023/01/26 04:08:48;;;;;;;68.10;22.20;;;-3275.20;99.90;;;;;;5027879;28;20112;-65
2023/01/26 04:11:14;;;;;;;64.57;22.58;;;-3275.20;99.90;;;;;;5027030;28;20556;-66
2023/01/26 04:21:52;;;;;;;66.32;22.95;;;-3275.30;99.90;;;;;;5028143;28;20037;-65
2023/01/26 04:24:21;;;;;;;65.53;21.52;;;-3275.20;99.90;;;;;;5025750;28;20053;-65
2023/01/26 04:26:46;;;;;;;61.38;22.02;;;-3275.30;99.90;;;;;;5015784;28;20041;-65
2023/01/26 04:29:13;;;;;;;65.53;22.42;;;-3275.30;99.90;;;;;;5029234;28;20033;-65
2023/01/26 04:31:40;;;;;;;67.72;22.00;;;-3275.30;99.90;;;;;;5017997;28;20385;-66
2023/01/26 04:34:09;;;;;;;68.00;23.58;;;-3275.30;99.90;;;;;;5014613;28;20045;-65
2023/01/26 04:36:35;;;;;;;66.30;22.83;;;-3275.30;99.90;;;;;;5024787;28;20454;-65
2023/01/26 04:39:00;;;;;;;68.20;22.73;;;-3275.30;99.90;;;;;;5020604;28;20041;-65
2023/01/26 04:41:28;;;;;;;69.53;22.65;;;-3275.30;99.90;;;;;;5027989;28;20065;-65
2023/01/26 04:43:54;;;;;;;59.92;22.70;;;-3275.30;99.90;;;;;;5028417;28;20033;-66
2023/01/26 04:46:19;;;;;;;64.90;22.00;;;-3275.30;99.90;;;;;;5022596;28;20382;-66
2023/01/26 04:48:44;;;;;;;67.75;22.00;;;-3275.30;99.90;;;;;;5026239;28;20064;-65
2023/01/26 04:51:13;;;;;;;70.82;22.75;;;-3275.30;99.90;;;;;;5027370;28;20037;-65
2023/01/26 04:53:39;;;;;;;66.20;22.05;;;-3275.30;99.90;;;;;;5025925;28;20371;-65
2023/01/26 04:56:05;;;;;;;68.80;21.42;;;-3275.30;99.90;;;;;;5018368;28;20040;-66
2023/01/26 04:58:31;;;;;;;62.53;21.05;;;-3275.40;99.90;;;;;;5019999;28;20029;-65
2023/01/26 05:00:57;;;;;;;65.50;21.23;;;-3275.40;99.90;;;;;;5021198;28;20034;-65
2023/01/26 05:03:26;;;;;;;64.35;22.20;;;-3275.40;99.90;;;;;;5022709;28;20071;-67
2023/01/26 05:05:53;;;;;;;61.88;21.98;;;-3275.40;99.90;;;;;;5015747;28;20048;-68
2023/01/26 05:08:20;;;;;;;65.05;22.30;;;-3275.40;99.90;;;;;;5022434;28;20022;-65
2023/01/26 05:10:46;;;;;;;64.63;20.40;;;-3275.40;99.90;;;;;;5024869;28;20037;-66
2023/01/26 05:13:11;;;;;;;61.22;20.70;;;-3275.40;99.90;;;;;;5020988;28;20038;-65
2023/01/26 05:15:38;;;;;;;65.72;21.52;;;-3275.40;99.90;;;;;;5024646;28;20147;-66
2023/01/26 05:18:04;;;;;;;62.65;21.88;;;-3275.40;99.90;;;;;;5027788;28;20432;-68
2023/01/26 05:20:30;;;;;;;58.30;20.90;;;-3275.40;99.90;;;;;;5022310;28;20037;-65
2023/01/26 05:22:56;;;;;;;65.15;21.48;;;-3275.40;99.90;;;;;;5023375;28;20049;-67
2023/01/26 05:25:22;;;;;;;63.38;20.35;;;-3275.40;99.90;;;;;;5021504;28;20033;-65
2023/01/26 05:27:47;;;;;;;61.75;22.83;;;-3275.40;99.90;;;;;;5023672;28;20037;-65
2023/01/26 05:30:13;;;;;;;65.97;20.77;;;-3275.50;99.90;;;;;;5020023;28;20063;-65
2023/01/26 05:32:38;;;;;;;66.57;21.35;;;-3275.40;99.90;;;;;;5022047;28;20386;-66
2023/01/26 05:35:05;;;;;;;61.00;20.92;;;-3275.50;99.90;;;;;;5015394;28;20050;-66
2023/01/26 05:37:31;;;;;;;62.38;20.23;;;-3275.50;99.90;;;;;;5019009;28;20038;-66
2023/01/26 05:39:57;;;;;;;61.13;20.90;;;-3275.50;99.90;;;;;;5021368;28;20030;-66
2023/01/26 05:42:23;;;;;;;64.65;21.08;;;-3275.50;99.90;;;;;;5024592;28;20086;-66
2023/01/26 05:44:49;;;;;;;70.15;21.60;;;-3275.50;99.90;;;;;;5021888;28;20037;-66
2023/01/26 05:47:14;;;;;;;54.65;20.02;;;-3275.50;99.90;;;;;;5019836;28;20521;-66
2023/01/26 05:49:44;;;;;;;68.75;19.92;;;-3275.50;99.90;;;;;;5023345;28;20030;-66
2023/01/26 05:52:13;;;;;;;61.75;20.92;;;-3275.50;99.90;;;;;;5032274;28;20049;-66
2023/01/26 05:54:39;;;;;;;57.15;18.85;;;-3275.50;99.90;;;;;;5018959;28;20065;-66
2023/01/26 05:57:06;;;;;;;58.28;20.23;;;-3275.50;99.90;;;;;;5027019;28;20068;-66
2023/01/26 05:59:31;;;;;;;66.75;21.98;;;-3275.50;99.90;;;;;;5016849;28;20037;-66
2023/01/26 06:01:57;;;;;;;65.40;20.50;;;-3275.50;99.90;;;;;;5025402;28;20030;-71
2023/01/26 06:04:23;;;;;;;65.03;20.50;;;-3275.50;99.90;;;;;;5020547;28;20260;-66
2023/01/26 06:06:52;;;;;;;55.40;19.67;;;-3275.50;99.90;;;;;;5026832;28;20026;-66
2023/01/26 06:09:18;;;;;;;57.75;21.27;;;-3275.50;99.90;;;;;;5026293;28;20022;-65
2023/01/26 06:11:43;;;;;;;64.55;20.08;;;-3275.50;99.90;;;;;;5025463;28;20044;-66
2023/01/26 06:14:09;;;;;;;65.68;20.70;;;-3275.60;99.90;;;;;;5024576;28;20041;-66
2023/01/26 06:16:34;;;;;;;66.50;18.98;;;-3275.60;99.90;;;;;;5026066;28;20548;-67
2023/01/26 06:19:00;;;;;;;59.00;19.05;;;-3275.60;99.90;;;;;;5026243;28;20029;-70
2023/01/26 06:21:25;;;;;;;61.40;19.83;;;-3275.60;99.90;;;;;;5019414;28;20033;-66
2023/01/26 06:23:51;;;;;;;55.30;18.58;;;-3275.60;99.90;;;;;;5026328;28;20124;-65
2023/01/26 06:26:16;;;;;;;64.53;21.13;;;-3275.60;99.90;;;;;;5027448;28;20044;-66
2023/01/26 06:28:42;;;;;;;57.67;17.95;;;-3275.60;99.90;;;;;;5017995;28;20064;-66
2023/01/26 06:31:09;;;;;;;49.28;16.63;;;-3275.60;99.90;;;;;;5017765;28;20040;-66
2023/01/26 06:33:36;;;;;;;58.10;17.80;;;-3275.60;99.90;;;;;;5013157;28;20120;-67
2023/01/26 06:36:11;;;;;;;54.00;18.80;;;-3275.60;99.90;;;;;;5010939;28;20364;-66
2023/01/26 06:38:43;;;;;;;60.05;18.67;;;-3275.60;99.90;;;;;;5023501;28;20079;-66
2023/01/26 06:41:09;;;;;;;55.67;18.42;;;-3275.70;99.90;;;;;;5037620;28;20040;-67
2023/01/26 06:43:35;;;;;;;54.53;17.25;;;-3275.60;99.90;;;;;;5027053;28;20029;-66
2023/01/26 06:46:02;;;;;;;52.20;17.27;;;-3275.70;99.90;;;;;;5019584;28;20022;-66
2023/01/26 06:48:30;;;;;;;53.25;17.80;;;-3275.60;99.90;;;;;;5021290;28;20026;-66
2023/01/26 06:50:56;;;;;;;51.85;16.42;;;-3275.60;99.90;;;;;;5027035;28;20575;-66
2023/01/26 06:53:25;;;;;;;56.30;18.17;;;-3275.60;99.90;;;;;;5022069;28;20099;-66
2023/01/26 06:55:51;;;;;;;53.70;17.95;;;-3275.60;99.90;;;;;;5025155;28;20030;-66
2023/01/26 06:58:16;;;;;;;48.42;17.15;;;-3275.70;99.90;;;;;;5023533;28;20022;-66
2023/01/26 07:00:42;;;;;;;57.67;17.60;;;-3275.70;99.90;;;;;;5021133;28;20041;-66
2023/01/26 07:03:09;;;;;;;57.67;17.80;;;-3275.70;99.90;;;;;;5029831;28;20469;-66
2023/01/26 07:05:35;;;;;;;51.63;17.67;;;-3275.70;99.90;;;;;;5017538;28;20632;-66
2023/01/26 07:08:03;;;;;;;56.22;19.08;;;-3275.70;99.90;;;;;;5027173;28;20075;-66
2023/01/26 07:10:29;;;;;;;53.78;17.27;;;-3275.70;99.90;;;;;;5025866;28;20037;-66
2023/01/26 07:12:54;;;;;;;60.08;19.67;;;-3275.70;99.90;;;;;;5021694;28;20046;-66
2023/01/26 07:15:20;;;;;;;63.55;18.35;;;-3275.70;99.90;;;;;;5030098;28;20029;-66
2023/01/26 07:17:45;;;;;;;56.20;18.80;;;-3275.70;99.90;;;;;;5032401;28;20071;-66
2023/01/26 07:20:11;;;;;;;51.92;18.17;;;-3275.70;99.90;;;;;;5024239;28;20115;-68
2023/01/26 07:22:36;;;;;;;51.83;16.98;;;-3275.70;99.90;;;;;;5027505;28;20116;-66
2023/01/26 07:25:02;;;;;;;59.25;18.08;;;-3275.70;99.90;;;;;;5029593;28;20029;-66
2023/01/26 07:27:27;;;;;;;54.83;18.77;;;-3275.70;99.90;;;;;;5022946;28;20401;-66
2023/01/26 07:29:53;;;;;;;59.15;18.52;;;-3275.70;99.90;;;;;;5028906;28;20040;-67
2023/01/26 07:32:18;;;;;;;55.05;18.13;;;-3275.70;99.90;;;;;;5031588;28;20091;-67
2023/01/26 07:34:44;;;;;;;53.97;18.02;;;-3275.70;99.90;;;;;;5027681;28;20383;-65
2023/01/26 07:37:09;;;;;;;58.50;18.30;;;-3275.80;99.90;;;;;;5026547;28;20034;-66
2023/01/26 07:39:35;;;;;;;62.90;20.00;;;-3275.80;99.90;;;;;;5022010;28;20386;-66
2023/01/26 07:42:00;;;;;;;58.72;17.50;;;-3275.80;99.90;;;;;;5016533;28;20029;-66
2023/01/26 07:44:26;;;;;;;53.60;17.08;;;-3275.80;99.90;;;;;;5022119;28;20038;-66
2023/01/26 07:46:52;;;;;;;62.80;17.85;;;-3275.80;99.90;;;;;;5030934;28;20071;-66
2023/01/26 07:49:17;;;;;;;59.97;19.15;;;-3275.90;99.90;;;;;;5031755;28;20112;-66
2023/01/26 07:51:43;;;;;;;59.85;16.70;;;-3275.90;99.90;;;;;;5031816;28;20121;-67
2023/01/26 07:54:11;;;;;;;59.42;17.48;;;-3275.90;99.90;;;;;;5039598;28;20048;-66
2023/01/26 07:56:37;;;;;;;49.00;16.80;;;-3275.90;99.90;;;;;;5033114;28;20067;-66
2023/01/26 07:59:02;;;;;;;54.30;17.52;;;-3275.90;99.90;;;;;;5030764;28;20025;-66
2023/01/26 08:01:28;;;;;;;60.20;18.70;;;-3275.90;99.90;;;;;;5020287;28;20045;-66
2023/01/26 08:03:54;;;;;;;65.68;19.48;;;-3276.00;99.90;;;;;;5031486;28;20052;-67
2023/01/26 08:06:20;;;;;;;60.53;18.90;;;-3276.00;99.90;;;;;;5031139;28;20083;-66
2023/01/26 08:08:49;;;;;;;58.45;17.95;;;-3276.00;99.90;;;;;;5023773;28;20378;-66
2023/01/26 08:11:16;;;;;;;62.33;19.42;;;-3276.00;99.90;;;;;;5022113;28;20033;-66
2023/01/26 08:13:42;;;;;;;57.55;18.38;;;-3276.00;99.90;;;;;;5036196;28;20588;-67
2023/01/26 08:16:10;;;;;;;58.75;18.83;;;-3276.00;99.90;;;;;;5051625;28;20112;-66
2023/01/26 08:18:37;;;;;;;57.67;19.20;;;-3276.00;99.90;;;;;;5031505;28;20030;-66
2023/01/26 08:21:03;;;;;;;48.00;18.38;;;-3276.10;99.90;;;;;;5039506;28;20352;-66
2023/01/26 08:23:29;;;;;;;55.40;17.35;;;-3276.10;99.90;;;;;;5027740;28;20206;-67
2023/01/26 08:25:54;;;;;;;57.78;18.85;;;-3276.10;99.90;;;;;;5021341;28;20537;-67
2023/01/26 08:28:20;;;;;;;55.13;17.65;;;-3276.20;99.90;;;;;;5019997;28;20064;-67
2023/01/26 08:30:45;;;;;;;55.60;19.42;;;-3276.20;99.90;;;;;;5028845;28;20033;-66
2023/01/26 08:33:11;;;;;;;50.95;17.77;;;-3276.20;99.90;;;;;;5030018;28;20052;-66
2023/01/26 08:35:36;;;;;;;53.33;17.73;;;-3276.20;99.80;;;;;;5022614;28;20405;-66
2023/01/26 08:38:05;;;;;;;63.13;19.63;;;-3276.20;99.80;;;;;;5019506;28;20048;-66
2023/01/26 08:40:30;;;;;;;53.00;17.60;;;-3276.20;99.80;;;;;;5024851;28;20038;-66
2023/01/26 08:42:59;;;;;;;50.97;17.60;;;-3276.30;99.90;;;;;;5029531;28;20021;-67
2023/01/26 08:45:25;;;;;;;48.42;16.27;;;-3276.20;99.80;;;;;;5028505;28;20038;-66
2023/01/26 08:47:50;;;;;;;50.15;17.10;;;-3276.30;99.90;;;;;;5013808;28;20033;-66
2023/01/26 08:50:16;;;;;;;53.08;17.20;;;-3276.30;99.90;;;;;;5027755;28;20131;-66
2023/01/26 08:52:41;;;;;;;47.28;17.23;;;-3276.30;99.90;;;;;;5024716;28;20111;-66
2023/01/26 08:55:07;;;;;;;41.53;15.40;;;-3276.30;99.80;;;;;;5028422;28;20382;-66
2023/01/26 08:57:33;;;;;;;41.60;15.48;;;-3276.30;99.90;;;;;;5028306;28;20231;-66
2023/01/26 08:59:58;;;;;;;41.72;15.77;;;-3276.40;99.90;;;;;;5019133;28;20045;-67
2023/01/26 09:02:24;;;;;;;46.53;16.23;;;-3276.40;99.90;;;;;;5024763;28;20495;-66
2023/01/26 09:04:49;;;;;;;42.60;15.70;;;-3276.40;99.90;;;;;;5034914;28;20029;-67
2023/01/26 09:07:15;;;;;;;41.60;15.30;;;-3276.50;99.90;;;;;;5021655;28;20034;-66
2023/01/26 09:09:40;;;;;;;46.70;17.45;;;-3276.50;99.90;;;;;;5024536;28;20461;-66
2023/01/26 09:12:06;;;;;;;46.03;16.23;;;-3276.50;99.90;;;;;;5029804;28;20033;-66
2023/01/26 09:14:31;;;;;;;43.10;16.60;;;-3276.50;99.90;;;;;;5030993;28;20065;-67
2023/01/26 09:16:57;;;;;;;35.42;14.48;;;-3276.50;99.90;;;;;;5028348;28;20029;-67
2023/01/26 09:19:22;;;;;;;42.05;15.50;;;-3276.60;99.90;;;;;;5027583;28;20041;-67
2023/01/26 09:21:52;;;;;;;39.47;15.70;;;-3276.60;99.90;;;;;;5030453;28;20475;-67
2023/01/26 09:24:18;;;;;;;39.03;15.20;;;-3276.60;99.90;;;;;;5031444;28;20084;-67
2023/01/26 09:26:44;;;;;;;35.65;13.40;;;-3276.60;99.90;;;;;;5027493;28;20038;-66
2023/01/26 09:29:09;;;;;;;40.22;15.00;;;-3276.60;99.90;;;;;;5020959;28;20041;-66
2023/01/26 09:31:34;;;;;;;35.22;14.15;;;-3276.60;99.90;;;;;;5033587;28;20039;-67
2023/01/26 09:34:00;;;;;;;37.15;13.95;;;-3276.70;99.90;;;;;;5020395;28;20413;-67
2023/01/26 09:36:25;;;;;;;35.50;13.80;;;-3276.70;99.90;;;;;;5032416;28;20545;-66
2023/01/26 09:38:52;;;;;;;34.60;12.70;;;-3276.70;99.90;;;;;;5031322;28;20072;-67
2023/01/26 09:41:34;;;;;;;39.10;14.35;;;-3276.70;99.90;;;;;;5036294;28;20064;-67
2023/01/26 09:44:06;;;;;;;35.13;13.02;;;-3276.70;99.90;;;;;;5029119;28;20032;-67
2023/01/26 09:46:54;;;;;;;33.28;12.13;;;0.00;99.90;;;;;;5034555;28;20034;-67
2023/01/26 09:49:46;;;;;;;34.17;13.85;;;0.00;99.90;;;;;;5036753;28;20033;-66
2023/01/26 09:52:26;;;;;;;33.42;12.68;;;-3276.70;99.90;;;;;;5021755;28;20104;-67
2023/01/26 09:54:57;;;;;;;28.63;11.52;;;0.00;99.90;;;;;;5030263;28;20065;-67
2023/01/26 09:57:32;;;;;;;30.05;11.48;;;0.00;99.90;;;;;;5026960;28;20138;-67
2023/01/26 10:00:21;;;;;;;26.77;11.15;;;0.00;99.90;;;;;;5028632;28;20029;-66
2023/01/26 10:03:12;;;;;;;34.20;11.93;;;0.00;99.90;;;;;;5041839;28;20025;-68
2023/01/26 10:05:44;;;;;;;28.80;11.15;;;0.00;99.90;;;;;;5042037;28;20423;-67
2023/01/26 10:08:12;;;;;;;28.48;11.55;;;0.00;99.90;;;;;;5027780;28;20471;-67
2023/01/26 10:10:44;;;;;;;28.38;11.25;;;0.00;99.90;;;;;;5034587;28;20047;-67
2023/01/26 10:13:14;;;;;;;30.42;11.20;;;0.10;99.90;;;;;;5030604;28;20026;-67
2023/01/26 10:15:42;;;;;;;29.95;11.63;;;0.10;99.90;;;;;;5045916;28;20026;-67
2023/01/26 10:18:30;;;;;;;28.75;10.43;;;0.10;99.90;;;;;;5028895;28;20037;-68
2023/01/26 10:20:58;;;;;;;28.90;10.82;;;0.20;99.90;;;;;;5017643;28;20493;-67
2023/01/26 10:23:34;;;;;;;33.83;12.20;;;0.20;99.90;;;;;;5022259;28;20038;-67
2023/01/26 10:26:21;;;;;;;26.33;10.02;;;0.20;99.90;;;;;;5024331;28;20072;-67
2023/01/26 10:28:51;;;;;;;28.60;11.02;;;0.10;99.80;;;;;;5022694;28;20064;-67
2023/01/26 10:31:21;;;;;;;31.80;12.80;;;0.10;99.90;;;;;;5020097;28;20120;-68
2023/01/26 10:34:16;;;;;;;32.38;12.15;;;0.10;99.90;;;;;;5024773;28;20050;-67
2023/01/26 10:36:44;;;;;;;28.17;11.35;;;0.20;99.90;;;;;;5027091;28;20128;-67
2023/01/26 10:39:12;;;;;;;28.95;12.95;;;0.20;99.90;;;;;;5013951;28;20366;-67
2023/01/26 10:41:38;;;;;;;33.90;13.30;;;0.30;99.90;;;;;;5023652;28;20033;-67
2023/01/26 10:44:11;;;;;;;24.73;11.07;;;0.30;99.90;;;;;;5031373;28;20507;-67
2023/01/26 10:46:38;;;;;;;27.75;11.43;;;0.20;99.80;;;;;;5028932;28;20033;-67
2023/01/26 10:49:28;;;;;;;24.73;10.80;;;0.20;99.90;;;;;;5029143;28;20030;-67
2023/01/26 10:52:16;;;;;;;25.80;10.32;;;0.30;99.90;;;;;;5018481;28;20040;-68
2023/01/26 10:54:43;;;;;;;23.25;10.95;;;0.30;99.90;;;;;;5027370;28;20052;-68
2023/01/26 10:57:32;;;;;;;23.98;11.45;;;0.30;99.90;;;;;;5028781;28;20029;-67
2023/01/26 11:00:27;;;;;;;24.17;10.55;;;0.30;99.90;;;;;;5026591;28;20467;-68
2023/01/26 11:03:17;;;;;;;23.33;10.50;;;0.40;99.90;;;;;;5024518;28;20038;-67
2023/01/26 11:05:46;;;;;;;26.20;11.32;;;0.30;99.80;;;;;;5028343;28;21279;-68
2023/01/26 11:08:33;;;;;;;22.50;10.10;;;0.40;99.80;;;;;;5033340;28;20413;-68
2023/01/26 11:10:58;;;;;;;20.73;9.88;;;0.30;99.80;;;;;;5027397;28;20033;-68
2023/01/26 11:13:24;;;;;;;27.80;11.05;;;0.30;99.80;;;;;;5027740;28;20045;-68
2023/01/26 11:16:02;;;;;;;22.33;10.82;;;0.40;99.90;;;;;;5037596;28;20056;-68
2023/01/26 11:19:03;;;;;;;23.77;11.43;;;0.40;99.90;;;;;;5016094;28;20375;-69
2023/01/26 11:21:54;;;;;;;22.42;10.20;;;0.40;99.90;;;;;;5026438;28;20029;-68
2023/01/26 11:24:33;;;;;;;22.77;10.45;;;0.40;99.80;;;;;;5024631;28;20057;-68
2023/01/26 11:27:21;;;;;;;24.98;9.88;;;0.50;99.90;;;;;;5015973;28;20045;-68
2023/01/26 11:30:14;;;;;;;29.08;10.23;;;0.40;99.90;;;;;;5027018;28;20033;-68
2023/01/26 11:33:16;;;;;;;30.25;11.25;;;0.50;99.90;;;;;;5018204;28;20530;-68
2023/01/26 11:35:59;;;;;;;27.02;10.63;;;0.50;99.80;;;;;;5017722;28;20068;-68
2023/01/26 11:38:45;;;;;;;24.80;11.07;;;0.40;99.80;;;;;;5020793;28;20033;-68
2023/01/26 11:41:16;;;;;;;25.08;10.85;;;0.50;99.90;;;;;;5027187;28;20061;-68
2023/01/26 11:44:09;;;;;;;28.98;11.18;;;0.50;99.90;;;;;;5024137;28;20044;-68
2023/01/26 11:46:55;;;;;;;27.33;10.52;;;0.60;99.90;;;;;;5014872;28;20426;-69
2023/01/26 11:49:52;;;;;;;29.85;11.30;;;0.50;99.90;;;;;;5023946;28;20092;-69
2023/01/26 11:52:38;;;;;;;28.55;11.35;;;0.60;99.90;;;;;;5025962;28;20064;-68
2023/01/26 11:55:20;;;;;;;26.20;11.20;;;0.60;99.90;;;;;;5022424;28;20044;-69
2023/01/26 11:58:23;;;;;;;23.50;10.60;;;0.80;99.90;;;;;;5017353;28;20021;-70
2023/01/26 12:00:55;;;;;;;30.90;10.75;;;0.80;99.90;;;;;;5020397;28;20440;-68
2023/01/26 12:03:43;;;;;;;28.83;11.07;;;0.80;99.90;;;;;;5024856;28;20037;-71
2023/01/26 12:06:16;;;;;;;24.83;10.75;;;0.80;99.90;;;;;;5028770;28;20033;-71
2023/01/26 12:08:57;;;;;;;24.85;11.55;;;0.80;99.90;;;;;;5021640;28;20116;-69
2023/01/26 12:11:34;;;;;;;31.70;12.48;;;0.80;99.90;;;;;;5017311;28;20037;-69
2023/01/26 12:14:24;;;;;;;25.02;11.05;;;0.80;99.90;;;;;;5024462;28;20041;-69
2023/01/26 12:17:15;;;;;;;29.67;11.40;;;0.90;99.90;;;;;;5021952;28;20067;-69
2023/01/26 12:19:53;;;;;;;28.73;10.60;;;0.80;99.90;;;;;;5017912;28;20065;-69
2023/01/26 12:22:31;;;;;;;26.75;10.73;;;0.90;99.90;;;;;;5021816;28;20025;-71
2023/01/26 12:25:14;;;;;;;31.25;10.70;;;1.00;99.90;;;;;;5012757;28;20386;-71
2023/01/26 12:27:45;;;;;;;41.15;11.75;;;1.00;99.90;;;;;;5025884;28;20034;-68
2023/01/26 12:30:26;;;;;;;27.83;10.43;;;1.00;99.90;;;;;;5025432;28;20025;-68
2023/01/26 12:32:52;;;;;;;34.47;10.38;;;1.10;99.90;;;;;;5017213;28;20741;-69
2023/01/26 12:35:45;;;;;;;26.90;10.93;;;1.00;99.90;;;;;;5024097;28;20496;-68
2023/01/26 12:38:53;;;;;;;33.30;10.55;;;1.00;99.90;;;;;;5021587;28;20033;-68
2023/01/26 12:41:57;;;;;;;31.13;10.70;;;0.90;99.90;;;;;;5018313;28;20573;-68
2023/01/26 12:44:38;;;;;;;31.45;9.98;;;1.00;99.90;;;;;;5036568;28;20052;-68
2023/01/26 12:47:33;;;;;;;40.40;11.45;;;0.90;99.90;;;;;;5027292;28;20042;-69
2023/01/26 12:50:00;;;;;;;37.35;11.73;;;1.00;99.90;;;;;;5021313;28;20418;-68
2023/01/26 12:52:32;;;;;;;46.03;10.80;;;1.00;99.90;;;;;;5023656;28;20033;-68
2023/01/26 12:55:14;;;;;;;39.20;12.40;;;1.00;99.90;;;;;;5023143;28;20042;-68
2023/01/26 12:57:56;;;;;;;41.80;11.25;;;1.00;99.90;;;;;;5026837;28;20505;-68
2023/01/26 13:00:26;;;;;;;52.30;11.15;;;1.00;99.90;;;;;;5024028;28;20509;-68
2023/01/26 13:02:59;;;;;;;35.35;11.15;;;1.00;99.90;;;;;;5022290;28;20128;-68
2023/01/26 13:05:26;;;;;;;42.13;11.15;;;1.00;99.90;;;;;;5024110;28;20034;-68
2023/01/26 13:07:52;;;;;;;48.25;16.98;;;1.10;99.90;;;;;;5023249;28;20515;-68
2023/01/26 13:10:22;;;;;;;38.42;12.63;;;1.10;99.90;;;;;;5028857;28;20041;-68